sensor_id;sensor_type;location;lat;lon;timestamp;pressure;altitude;pressure_sealevel;temperature;humidity
62697;BME280;48761;42.680;23.312;2023-05-25T00:00:17;94775.84;;;18.35;67.42
62697;BME280;48761;42.680;23.312;2023-05-25T00:02:43;94774.69;;;18.19;67.52
62697;BME280;48761;42.680;23.312;2023-05-25T00:05:10;94791.13;;;18.16;67.95
62697;BME280;48761;42.680;23.312;2023-05-25T00:07:36;94775.19;;;17.96;68.11
62697;BME280;48761;42.680;23.312;2023-05-25T00:10:03;94770.81;;;17.95;67.71
62697;BME280;48761;42.680;23.312;2023-05-25T00:12:29;94792.56;;;17.84;68.67
62697;BME280;48761;42.680;23.312;2023-05-25T00:14:55;94779.03;;;17.75;68.83
62697;BME280;48761;42.680;23.312;2023-05-25T00:17:21;94801.31;;;17.86;69.07
62697;BME280;48761;42.680;23.312;2023-05-25T00:19:47;94794.63;;;17.90;68.69
62697;BME280;48761;42.680;23.312;2023-05-25T00:22:13;94769.59;;;17.71;69.02
62697;BME280;48761;42.680;23.312;2023-05-25T00:24:40;94794.41;;;18.01;68.84
62697;BME280;48761;42.680;23.312;2023-05-25T00:27:06;94773.50;;;17.95;68.56
62697;BME280;48761;42.680;23.312;2023-05-25T00:29:33;94769.44;;;17.91;68.08
62697;BME280;48761;42.680;23.312;2023-05-25T00:32:01;94793.94;;;18.24;67.58
62697;BME280;48761;42.680;23.312;2023-05-25T00:34:27;94772.41;;;18.06;67.31
62697;BME280;48761;42.680;23.312;2023-05-25T00:36:53;94795.16;;;18.12;67.67
62697;BME280;48761;42.680;23.312;2023-05-25T00:39:20;94794.00;;;18.14;67.23
62697;BME280;48761;42.680;23.312;2023-05-25T00:41:46;94796.06;;;18.02;67.44
62697;BME280;48761;42.680;23.312;2023-05-25T00:44:14;94796.69;;;17.96;68.12
62697;BME280;48761;42.680;23.312;2023-05-25T00:46:47;94800.63;;;17.84;68.50
62697;BME280;48761;42.680;23.312;2023-05-25T00:49:14;94773.22;;;17.62;68.73
62697;BME280;48761;42.680;23.312;2023-05-25T00:51:41;94796.41;;;17.99;68.32
62697;BME280;48761;42.680;23.312;2023-05-25T00:54:07;94804.09;;;17.94;68.34
62697;BME280;48761;42.680;23.312;2023-05-25T00:56:37;94801.63;;;17.83;68.27
62697;BME280;48761;42.680;23.312;2023-05-25T00:59:05;94802.63;;;17.81;68.79
62697;BME280;48761;42.680;23.312;2023-05-25T01:01:36;94807.91;;;17.73;69.07
62697;BME280;48761;42.680;23.312;2023-05-25T01:04:03;94799.94;;;17.81;68.42
62697;BME280;48761;42.680;23.312;2023-05-25T01:06:31;94819.66;;;17.54;69.55
62697;BME280;48761;42.680;23.312;2023-05-25T01:09:00;94815.75;;;17.48;69.77
62697;BME280;48761;42.680;23.312;2023-05-25T01:11:37;94808.53;;;17.48;69.45
62697;BME280;48761;42.680;23.312;2023-05-25T01:14:05;94799.97;;;17.35;70.09
62697;BME280;48761;42.680;23.312;2023-05-25T01:16:31;94818.06;;;17.61;69.63
62697;BME280;48761;42.680;23.312;2023-05-25T01:18:57;94822.06;;;17.75;69.24
62697;BME280;48761;42.680;23.312;2023-05-25T01:21:46;94810.13;;;17.41;69.92
62697;BME280;48761;42.680;23.312;2023-05-25T01:26:54;94799.03;;;17.54;68.98
62697;BME280;48761;42.680;23.312;2023-05-25T01:29:23;94802.06;;;17.59;68.66
62697;BME280;48761;42.680;23.312;2023-05-25T01:31:51;94783.34;;;17.31;69.30
62697;BME280;48761;42.680;23.312;2023-05-25T01:34:19;94797.16;;;17.36;69.14
62697;BME280;48761;42.680;23.312;2023-05-25T01:36:46;94798.19;;;17.54;68.94
62697;BME280;48761;42.680;23.312;2023-05-25T01:39:12;94796.63;;;17.51;68.50
62697;BME280;48761;42.680;23.312;2023-05-25T01:41:38;94774.09;;;17.16;69.61
62697;BME280;48761;42.680;23.312;2023-05-25T01:44:05;94787.38;;;17.17;70.04
62697;BME280;48761;42.680;23.312;2023-05-25T01:46:37;94768.44;;;17.19;69.93
62697;BME280;48761;42.680;23.312;2023-05-25T01:49:20;94781.34;;;17.33;69.32
62697;BME280;48761;42.680;23.312;2023-05-25T01:54:18;94757.91;;;17.25;68.43
62697;BME280;48761;42.680;23.312;2023-05-25T01:56:47;94783.63;;;17.28;68.99
62697;BME280;48761;42.680;23.312;2023-05-25T01:59:15;94766.81;;;16.98;69.69
62697;BME280;48761;42.680;23.312;2023-05-25T02:01:47;94753.00;;;16.64;70.67
62697;BME280;48761;42.680;23.312;2023-05-25T02:04:15;94752.81;;;16.76;69.69
62697;BME280;48761;42.680;23.312;2023-05-25T02:06:42;94788.88;;;16.91;70.22
62697;BME280;48761;42.680;23.312;2023-05-25T02:09:08;94788.31;;;16.98;70.46
62697;BME280;48761;42.680;23.312;2023-05-25T02:11:34;94802.09;;;16.75;71.71
62697;BME280;48761;42.680;23.312;2023-05-25T02:14:00;94795.38;;;16.89;71.29
62697;BME280;48761;42.680;23.312;2023-05-25T02:16:26;94803.59;;;16.87;71.41
62697;BME280;48761;42.680;23.312;2023-05-25T02:18:52;94802.47;;;16.90;71.66
62697;BME280;48761;42.680;23.312;2023-05-25T02:21:18;94803.59;;;16.87;71.59
62697;BME280;48761;42.680;23.312;2023-05-25T02:23:44;94786.16;;;16.73;71.68
62697;BME280;48761;42.680;23.312;2023-05-25T02:26:10;94781.13;;;16.60;71.98
62697;BME280;48761;42.680;23.312;2023-05-25T02:28:36;94784.78;;;16.59;72.44
62697;BME280;48761;42.680;23.312;2023-05-25T02:31:02;94816.47;;;16.84;72.00
62697;BME280;48761;42.680;23.312;2023-05-25T02:33:28;94814.22;;;16.79;71.95
62697;BME280;48761;42.680;23.312;2023-05-25T02:35:54;94823.97;;;16.80;71.95
62697;BME280;48761;42.680;23.312;2023-05-25T02:38:20;94827.97;;;16.76;72.08
62697;BME280;48761;42.680;23.312;2023-05-25T02:40:46;94814.94;;;16.81;71.29
62697;BME280;48761;42.680;23.312;2023-05-25T02:43:12;94834.03;;;16.78;71.83
62697;BME280;48761;42.680;23.312;2023-05-25T02:45:38;94839.69;;;16.75;71.85
62697;BME280;48761;42.680;23.312;2023-05-25T02:48:04;94843.47;;;16.82;71.38
62697;BME280;48761;42.680;23.312;2023-05-25T02:50:30;94833.09;;;16.59;72.28
62697;BME280;48761;42.680;23.312;2023-05-25T02:52:56;94842.56;;;16.91;71.48
62697;BME280;48761;42.680;23.312;2023-05-25T02:55:22;94842.78;;;16.80;71.30
62697;BME280;48761;42.680;23.312;2023-05-25T02:57:48;94843.19;;;16.85;71.16
62697;BME280;48761;42.680;23.312;2023-05-25T03:00:14;94847.72;;;16.75;71.48
62697;BME280;48761;42.680;23.312;2023-05-25T03:02:40;94842.94;;;16.68;71.57
62697;BME280;48761;42.680;23.312;2023-05-25T03:05:06;94835.28;;;16.74;71.41
62697;BME280;48761;42.680;23.312;2023-05-25T03:07:32;94852.28;;;16.64;71.89
62697;BME280;48761;42.680;23.312;2023-05-25T03:09:58;94819.66;;;16.59;71.52
62697;BME280;48761;42.680;23.312;2023-05-25T03:12:24;94842.69;;;16.62;72.09
62697;BME280;48761;42.680;23.312;2023-05-25T03:14:50;94840.84;;;16.62;72.38
62697;BME280;48761;42.680;23.312;2023-05-25T03:17:16;94829.91;;;16.74;71.63
62697;BME280;48761;42.680;23.312;2023-05-25T03:19:42;94853.44;;;17.00;71.31
62697;BME280;48761;42.680;23.312;2023-05-25T03:22:09;94851.34;;;16.94;71.18
62697;BME280;48761;42.680;23.312;2023-05-25T03:24:37;94834.72;;;16.80;71.48
62697;BME280;48761;42.680;23.312;2023-05-25T03:27:08;94804.25;;;16.61;71.20
62697;BME280;48761;42.680;23.312;2023-05-25T03:29:37;94806.53;;;16.56;71.19
62697;BME280;48761;42.680;23.312;2023-05-25T03:32:04;94839.97;;;16.72;71.26
62697;BME280;48761;42.680;23.312;2023-05-25T03:34:31;94850.75;;;17.00;71.15
62697;BME280;48761;42.680;23.312;2023-05-25T03:36:57;94859.34;;;17.42;69.92
62697;BME280;48761;42.680;23.312;2023-05-25T03:39:23;94853.66;;;17.45;69.58
62697;BME280;48761;42.680;23.312;2023-05-25T03:41:50;94861.19;;;17.59;68.45
62697;BME280;48761;42.680;23.312;2023-05-25T03:44:16;94858.66;;;17.58;68.90
62697;BME280;48761;42.680;23.312;2023-05-25T03:46:42;94862.38;;;17.75;67.86
62697;BME280;48761;42.680;23.312;2023-05-25T03:49:08;94849.22;;;17.72;68.13
62697;BME280;48761;42.680;23.312;2023-05-25T03:51:34;94859.91;;;17.64;68.05
62697;BME280;48761;42.680;23.312;2023-05-25T03:54:00;94859.91;;;17.64;68.09
62697;BME280;48761;42.680;23.312;2023-05-25T03:56:26;94827.09;;;17.60;68.20
62697;BME280;48761;42.680;23.312;2023-05-25T03:58:52;94865.16;;;18.02;68.24
62697;BME280;48761;42.680;23.312;2023-05-25T04:01:18;94867.59;;;18.13;67.94
62697;BME280;48761;42.680;23.312;2023-05-25T04:03:44;94874.69;;;18.33;67.20
62697;BME280;48761;42.680;23.312;2023-05-25T04:06:10;94867.94;;;18.29;66.59
62697;BME280;48761;42.680;23.312;2023-05-25T04:08:36;94853.44;;;18.48;65.94
62697;BME280;48761;42.680;23.312;2023-05-25T04:11:02;94875.75;;;18.93;65.11
62697;BME280;48761;42.680;23.312;2023-05-25T04:13:28;94882.34;;;19.18;64.76
62697;BME280;48761;42.680;23.312;2023-05-25T04:15:54;94882.88;;;19.30;63.99
62697;BME280;48761;42.680;23.312;2023-05-25T04:18:20;94884.47;;;19.41;63.53
62697;BME280;48761;42.680;23.312;2023-05-25T04:20:46;94879.25;;;19.47;62.80
62697;BME280;48761;42.680;23.312;2023-05-25T04:23:12;94887.16;;;19.41;62.62
62697;BME280;48761;42.680;23.312;2023-05-25T04:25:38;94874.03;;;18.84;63.58
62697;BME280;48761;42.680;23.312;2023-05-25T04:28:04;94884.06;;;19.00;65.77
62697;BME280;48761;42.680;23.312;2023-05-25T04:30:30;94873.84;;;18.77;64.60
62697;BME280;48761;42.680;23.312;2023-05-25T04:32:56;94898.75;;;18.79;64.71
62697;BME280;48761;42.680;23.312;2023-05-25T04:35:22;94883.44;;;18.80;64.68
62697;BME280;48761;42.680;23.312;2023-05-25T04:37:48;94869.91;;;18.71;64.64
62697;BME280;48761;42.680;23.312;2023-05-25T04:40:14;94904.88;;;18.90;64.63
62697;BME280;48761;42.680;23.312;2023-05-25T04:42:40;94902.88;;;18.92;65.05
62697;BME280;48761;42.680;23.312;2023-05-25T04:45:07;94912.47;;;18.95;65.15
62697;BME280;48761;42.680;23.312;2023-05-25T04:47:33;94903.41;;;18.96;65.43
62697;BME280;48761;42.680;23.312;2023-05-25T04:49:59;94901.88;;;18.48;67.00
62697;BME280;48761;42.680;23.312;2023-05-25T04:52:25;94901.97;;;18.83;67.11
62697;BME280;48761;42.680;23.312;2023-05-25T04:54:51;94893.91;;;18.83;66.56
62697;BME280;48761;42.680;23.312;2023-05-25T04:57:17;94896.84;;;19.25;66.47
62697;BME280;48761;42.680;23.312;2023-05-25T04:59:43;94895.50;;;19.64;65.38
62697;BME280;48761;42.680;23.312;2023-05-25T05:02:09;94893.03;;;19.88;64.25
62697;BME280;48761;42.680;23.312;2023-05-25T05:04:35;94888.91;;;20.27;63.46
62697;BME280;48761;42.680;23.312;2023-05-25T05:07:04;94891.78;;;20.67;62.75
62697;BME280;48761;42.680;23.312;2023-05-25T05:09:30;94892.06;;;20.89;61.45
62697;BME280;48761;42.680;23.312;2023-05-25T05:11:56;94878.13;;;21.34;60.65
62697;BME280;48761;42.680;23.312;2023-05-25T05:14:22;94867.50;;;21.73;59.09
62697;BME280;48761;42.680;23.312;2023-05-25T05:16:48;94892.16;;;22.10;57.48
62697;BME280;48761;42.680;23.312;2023-05-25T05:19:14;94882.53;;;22.55;56.08
62697;BME280;48761;42.680;23.312;2023-05-25T05:21:40;94864.47;;;22.70;54.67
62697;BME280;48761;42.680;23.312;2023-05-25T05:24:06;94874.09;;;22.73;54.49
62697;BME280;48761;42.680;23.312;2023-05-25T05:26:31;94885.81;;;22.65;54.57
62697;BME280;48761;42.680;23.312;2023-05-25T05:28:57;94898.53;;;22.65;54.46
62697;BME280;48761;42.680;23.312;2023-05-25T05:31:23;94898.16;;;21.97;55.87
62697;BME280;48761;42.680;23.312;2023-05-25T05:33:49;94898.91;;;22.14;55.55
62697;BME280;48761;42.680;23.312;2023-05-25T05:36:15;94906.94;;;22.23;55.05
62697;BME280;48761;42.680;23.312;2023-05-25T05:38:41;94895.13;;;21.92;55.88
62697;BME280;48761;42.680;23.312;2023-05-25T05:41:07;94904.25;;;21.99;55.32
62697;BME280;48761;42.680;23.312;2023-05-25T05:43:33;94899.25;;;22.35;54.66
62697;BME280;48761;42.680;23.312;2023-05-25T05:45:59;94917.22;;;23.13;53.18
62697;BME280;48761;42.680;23.312;2023-05-25T05:48:25;94914.41;;;22.91;53.16
62697;BME280;48761;42.680;23.312;2023-05-25T05:50:51;94889.66;;;21.28;56.15
62697;BME280;48761;42.680;23.312;2023-05-25T05:53:17;94909.28;;;21.13;56.87
62697;BME280;48761;42.680;23.312;2023-05-25T05:55:43;94914.09;;;21.43;55.74
62697;BME280;48761;42.680;23.312;2023-05-25T05:58:09;94912.34;;;21.10;56.88
62697;BME280;48761;42.680;23.312;2023-05-25T06:00:35;94914.66;;;22.58;54.10
62697;BME280;48761;42.680;23.312;2023-05-25T06:03:01;94916.66;;;22.17;54.28
62697;BME280;48761;42.680;23.312;2023-05-25T06:05:27;94914.44;;;23.22;51.77
62697;BME280;48761;42.680;23.312;2023-05-25T06:07:53;94921.72;;;23.36;50.60
62697;BME280;48761;42.680;23.312;2023-05-25T06:10:19;94913.50;;;23.45;51.15
62697;BME280;48761;42.680;23.312;2023-05-25T06:12:45;94911.56;;;23.69;50.42
62697;BME280;48761;42.680;23.312;2023-05-25T06:15:11;94916.50;;;23.80;50.86
62697;BME280;48761;42.680;23.312;2023-05-25T06:17:37;94918.56;;;24.52;49.10
62697;BME280;48761;42.680;23.312;2023-05-25T06:20:03;94924.97;;;24.67;48.65
62697;BME280;48761;42.680;23.312;2023-05-25T06:22:29;94923.94;;;25.47;47.31
62697;BME280;48761;42.680;23.312;2023-05-25T06:24:55;94925.88;;;24.74;48.02
62697;BME280;48761;42.680;23.312;2023-05-25T06:27:21;94923.19;;;25.03;47.67
62697;BME280;48761;42.680;23.312;2023-05-25T06:29:47;94919.47;;;23.10;51.00
62697;BME280;48761;42.680;23.312;2023-05-25T06:32:12;94890.56;;;22.63;52.29
62697;BME280;48761;42.680;23.312;2023-05-25T06:34:38;94922.84;;;23.12;51.35
62697;BME280;48761;42.680;23.312;2023-05-25T06:37:04;94917.75;;;24.15;49.15
62697;BME280;48761;42.680;23.312;2023-05-25T06:39:30;94933.06;;;24.82;48.30
62697;BME280;48761;42.680;23.312;2023-05-25T06:41:56;94933.31;;;24.43;48.37
62697;BME280;48761;42.680;23.312;2023-05-25T06:44:22;94930.34;;;24.82;47.88
62697;BME280;48761;42.680;23.312;2023-05-25T06:46:48;94908.34;;;24.33;49.25
62697;BME280;48761;42.680;23.312;2023-05-25T06:49:14;94932.56;;;23.36;50.91
62697;BME280;48761;42.680;23.312;2023-05-25T06:51:40;94925.50;;;23.66;51.36
62697;BME280;48761;42.680;23.312;2023-05-25T06:54:06;94904.56;;;24.49;49.59
62697;BME280;48761;42.680;23.312;2023-05-25T06:56:32;94936.28;;;24.70;49.01
62697;BME280;48761;42.680;23.312;2023-05-25T06:58:58;94930.13;;;24.83;48.50
62697;BME280;48761;42.680;23.312;2023-05-25T07:01:24;94926.19;;;25.08;48.98
62697;BME280;48761;42.680;23.312;2023-05-25T07:03:50;94932.63;;;25.64;47.82
62697;BME280;48761;42.680;23.312;2023-05-25T07:06:16;94918.16;;;25.64;47.93
62697;BME280;48761;42.680;23.312;2023-05-25T07:08:42;94925.69;;;25.62;48.64
62697;BME280;48761;42.680;23.312;2023-05-25T07:11:07;94899.78;;;25.02;48.48
62697;BME280;48761;42.680;23.312;2023-05-25T07:13:33;94911.34;;;25.75;48.31
62697;BME280;48761;42.680;23.312;2023-05-25T07:15:59;94915.56;;;25.49;49.27
62697;BME280;48761;42.680;23.312;2023-05-25T07:18:25;94905.84;;;26.11;47.61
62697;BME280;48761;42.680;23.312;2023-05-25T07:20:51;94896.78;;;25.61;48.03
62697;BME280;48761;42.680;23.312;2023-05-25T07:23:17;94916.88;;;25.89;48.15
62697;BME280;48761;42.680;23.312;2023-05-25T07:25:43;94917.28;;;25.99;47.65
62697;BME280;48761;42.680;23.312;2023-05-25T07:28:09;94920.03;;;25.63;49.08
62697;BME280;48761;42.680;23.312;2023-05-25T07:30:35;94902.19;;;25.54;48.71
62697;BME280;48761;42.680;23.312;2023-05-25T07:33:01;94924.66;;;26.05;47.58
62697;BME280;48761;42.680;23.312;2023-05-25T07:35:27;94924.25;;;26.08;47.90
62697;BME280;48761;42.680;23.312;2023-05-25T07:37:57;94924.03;;;26.03;46.16
62697;BME280;48761;42.680;23.312;2023-05-25T07:40:23;94921.50;;;25.59;46.93
62697;BME280;48761;42.680;23.312;2023-05-25T07:42:49;94909.38;;;25.62;47.21
62697;BME280;48761;42.680;23.312;2023-05-25T07:45:15;94923.94;;;25.18;49.07
62697;BME280;48761;42.680;23.312;2023-05-25T07:47:41;94938.59;;;24.14;51.88
62697;BME280;48761;42.680;23.312;2023-05-25T07:50:07;94927.47;;;24.24;49.80
62697;BME280;48761;42.680;23.312;2023-05-25T07:52:33;94922.72;;;24.26;49.14
62697;BME280;48761;42.680;23.312;2023-05-25T07:54:59;94927.31;;;24.11;48.94
62697;BME280;48761;42.680;23.312;2023-05-25T07:57:25;94933.22;;;23.99;49.91
62697;BME280;48761;42.680;23.312;2023-05-25T07:59:51;94939.53;;;23.54;51.09
62697;BME280;48761;42.680;23.312;2023-05-25T08:02:17;94947.38;;;22.80;53.19
62697;BME280;48761;42.680;23.312;2023-05-25T08:04:43;94941.72;;;22.58;54.19
62697;BME280;48761;42.680;23.312;2023-05-25T08:07:09;94934.88;;;22.23;54.77
62697;BME280;48761;42.680;23.312;2023-05-25T08:09:35;94948.28;;;22.16;54.95
62697;BME280;48761;42.680;23.312;2023-05-25T08:12:01;94950.25;;;21.99;55.14
62697;BME280;48761;42.680;23.312;2023-05-25T08:14:27;94955.34;;;21.86;54.57
62697;BME280;48761;42.680;23.312;2023-05-25T08:16:52;94974.78;;;21.32;55.49
62697;BME280;48761;42.680;23.312;2023-05-25T08:19:18;94965.00;;;20.81;56.31
62697;BME280;48761;42.680;23.312;2023-05-25T08:21:44;94973.44;;;20.44;57.45
62697;BME280;48761;42.680;23.312;2023-05-25T08:24:10;94985.22;;;20.26;58.97
62697;BME280;48761;42.680;23.312;2023-05-25T08:26:36;94995.53;;;19.96;60.42
62697;BME280;48761;42.680;23.312;2023-05-25T08:29:03;94993.19;;;19.58;62.34
62697;BME280;48761;42.680;23.312;2023-05-25T08:31:32;94999.28;;;19.33;63.81
62697;BME280;48761;42.680;23.312;2023-05-25T08:33:58;95002.69;;;19.17;65.70
62697;BME280;48761;42.680;23.312;2023-05-25T08:36:26;95002.59;;;18.82;66.61
62697;BME280;48761;42.680;23.312;2023-05-25T08:38:52;95005.94;;;18.76;69.27
62697;BME280;48761;42.680;23.312;2023-05-25T08:41:19;95005.75;;;18.59;70.85
62697;BME280;48761;42.680;23.312;2023-05-25T08:43:45;95004.31;;;18.18;72.45
62697;BME280;48761;42.680;23.312;2023-05-25T08:46:10;94998.66;;;18.21;74.07
62697;BME280;48761;42.680;23.312;2023-05-25T08:48:37;94976.06;;;18.51;73.28
62697;BME280;48761;42.680;23.312;2023-05-25T08:51:08;94993.91;;;18.52;74.30
62697;BME280;48761;42.680;23.312;2023-05-25T08:53:36;94997.06;;;18.47;73.37
62697;BME280;48761;42.680;23.312;2023-05-25T08:56:21;95019.47;;;18.47;73.35
62697;BME280;48761;42.680;23.312;2023-05-25T08:59:02;95009.00;;;17.88;71.89
62697;BME280;48761;42.680;23.312;2023-05-25T09:01:32;94986.81;;;18.14;71.08
62697;BME280;48761;42.680;23.312;2023-05-25T09:04:02;95000.81;;;17.89;70.52
62697;BME280;48761;42.680;23.312;2023-05-25T09:06:28;95019.94;;;18.14;70.90
62697;BME280;48761;42.680;23.312;2023-05-25T09:08:55;94996.06;;;18.30;71.64
62697;BME280;48761;42.680;23.312;2023-05-25T09:11:21;95024.06;;;18.37;69.77
62697;BME280;48761;42.680;23.312;2023-05-25T09:13:47;95035.75;;;18.64;70.08
62697;BME280;48761;42.680;23.312;2023-05-25T09:16:14;95031.28;;;18.91;69.18
62697;BME280;48761;42.680;23.312;2023-05-25T09:18:41;95005.19;;;18.92;69.00
62697;BME280;48761;42.680;23.312;2023-05-25T09:21:07;95039.91;;;18.77;69.48
62697;BME280;48761;42.680;23.312;2023-05-25T09:23:34;95003.16;;;18.67;71.50
62697;BME280;48761;42.680;23.312;2023-05-25T09:26:00;95033.59;;;18.86;70.18
62697;BME280;48761;42.680;23.312;2023-05-25T09:28:26;95001.28;;;18.86;71.05
62697;BME280;48761;42.680;23.312;2023-05-25T09:30:52;94981.34;;;18.79;70.80
62697;BME280;48761;42.680;23.312;2023-05-25T09:33:19;95030.88;;;19.23;71.50
62697;BME280;48761;42.680;23.312;2023-05-25T09:35:45;95015.03;;;19.20;72.37
62697;BME280;48761;42.680;23.312;2023-05-25T09:38:15;95022.94;;;19.48;73.45
62697;BME280;48761;42.680;23.312;2023-05-25T09:40:41;95022.66;;;19.51;73.52
62697;BME280;48761;42.680;23.312;2023-05-25T09:43:07;95008.94;;;19.71;72.96
62697;BME280;48761;42.680;23.312;2023-05-25T09:45:33;95006.34;;;19.61;72.38
62697;BME280;48761;42.680;23.312;2023-05-25T09:47:59;95007.28;;;19.78;72.00
62697;BME280;48761;42.680;23.312;2023-05-25T09:50:28;95005.28;;;19.89;72.51
62697;BME280;48761;42.680;23.312;2023-05-25T09:52:59;95009.78;;;19.45;72.00
62697;BME280;48761;42.680;23.312;2023-05-25T09:55:28;95005.28;;;19.89;72.08
62697;BME280;48761;42.680;23.312;2023-05-25T09:57:55;95006.97;;;19.90;70.98
62697;BME280;48761;42.680;23.312;2023-05-25T10:00:22;94993.47;;;19.81;71.32
62697;BME280;48761;42.680;23.312;2023-05-25T10:02:48;94983.31;;;19.75;72.18
62697;BME280;48761;42.680;23.312;2023-05-25T10:05:15;94992.50;;;19.91;71.50
62697;BME280;48761;42.680;23.312;2023-05-25T10:07:43;94996.25;;;20.07;70.04
62697;BME280;48761;42.680;23.312;2023-05-25T10:10:12;94975.63;;;19.97;74.09
62697;BME280;48761;42.680;23.312;2023-05-25T10:12:40;94999.00;;;19.71;76.15
62697;BME280;48761;42.680;23.312;2023-05-25T10:15:08;94986.88;;;20.19;74.95
62697;BME280;48761;42.680;23.312;2023-05-25T10:17:34;94989.13;;;19.89;73.59
62697;BME280;48761;42.680;23.312;2023-05-25T10:20:02;94990.28;;;20.30;72.84
62697;BME280;48761;42.680;23.312;2023-05-25T10:22:35;94986.94;;;20.44;71.11
62697;BME280;48761;42.680;23.312;2023-05-25T10:25:10;94984.19;;;20.19;71.80
62697;BME280;48761;42.680;23.312;2023-05-25T10:27:40;94974.44;;;20.35;70.85
62697;BME280;48761;42.680;23.312;2023-05-25T10:30:07;94987.78;;;20.61;70.95
62697;BME280;48761;42.680;23.312;2023-05-25T10:32:36;94971.78;;;21.02;67.19
62697;BME280;48761;42.680;23.312;2023-05-25T10:35:04;94963.50;;;20.61;68.86
62697;BME280;48761;42.680;23.312;2023-05-25T10:37:31;94966.72;;;20.65;68.76
62697;BME280;48761;42.680;23.312;2023-05-25T10:39:59;94965.00;;;20.47;68.51
62697;BME280;48761;42.680;23.312;2023-05-25T10:42:26;94953.69;;;20.94;66.99
62697;BME280;48761;42.680;23.312;2023-05-25T10:44:52;94946.44;;;21.11;63.88
62697;BME280;48761;42.680;23.312;2023-05-25T10:47:19;94927.84;;;20.91;64.65
62697;BME280;48761;42.680;23.312;2023-05-25T10:49:53;94939.00;;;20.88;66.50
62697;BME280;48761;42.680;23.312;2023-05-25T10:52:20;94937.66;;;20.34;67.10
62697;BME280;48761;42.680;23.312;2023-05-25T10:54:47;94922.16;;;20.53;65.24
62697;BME280;48761;42.680;23.312;2023-05-25T10:57:19;94897.34;;;20.49;65.92
62697;BME280;48761;42.680;23.312;2023-05-25T10:59:51;94919.78;;;20.83;64.94
62697;BME280;48761;42.680;23.312;2023-05-25T11:02:21;94905.25;;;21.01;62.40
62697;BME280;48761;42.680;23.312;2023-05-25T11:04:47;94911.97;;;20.88;62.24
62697;BME280;48761;42.680;23.312;2023-05-25T11:07:15;94913.00;;;20.45;64.20
62697;BME280;48761;42.680;23.312;2023-05-25T11:09:42;94899.50;;;20.20;63.78
62697;BME280;48761;42.680;23.312;2023-05-25T11:12:19;94915.38;;;20.82;62.70
62697;BME280;48761;42.680;23.312;2023-05-25T11:15:10;94920.13;;;20.80;63.53
62697;BME280;48761;42.680;23.312;2023-05-25T11:17:57;94932.59;;;20.39;65.79
62697;BME280;48761;42.680;23.312;2023-05-25T11:20:26;94908.56;;;20.02;64.46
62697;BME280;48761;42.680;23.312;2023-05-25T11:22:52;94929.72;;;19.72;64.74
62697;BME280;48761;42.680;23.312;2023-05-25T11:25:38;94921.97;;;19.69;64.62
62697;BME280;48761;42.680;23.312;2023-05-25T11:28:07;94927.50;;;20.27;62.55
62697;BME280;48761;42.680;23.312;2023-05-25T11:30:33;94920.13;;;20.80;61.39
62697;BME280;48761;42.680;23.312;2023-05-25T11:33:03;94926.34;;;20.97;61.30
62697;BME280;48761;42.680;23.312;2023-05-25T11:35:32;94905.94;;;20.78;62.95
62697;BME280;48761;42.680;23.312;2023-05-25T11:37:59;94915.72;;;20.79;63.40
62697;BME280;48761;42.680;23.312;2023-05-25T11:40:29;94925.53;;;20.80;63.34
62697;BME280;48761;42.680;23.312;2023-05-25T11:42:56;94925.84;;;20.43;63.33
62697;BME280;48761;42.680;23.312;2023-05-25T11:45:23;94926.38;;;20.47;63.47
62697;BME280;48761;42.680;23.312;2023-05-25T11:47:49;94892.72;;;20.08;65.87
62697;BME280;48761;42.680;23.312;2023-05-25T11:50:15;94930.38;;;20.43;64.58
62697;BME280;48761;42.680;23.312;2023-05-25T11:52:41;94916.38;;;20.31;64.44
62697;BME280;48761;42.680;23.312;2023-05-25T11:55:13;94923.16;;;20.77;62.82
62697;BME280;48761;42.680;23.312;2023-05-25T11:57:40;94925.66;;;20.95;61.75
62697;BME280;48761;42.680;23.312;2023-05-25T12:00:06;94886.38;;;20.67;63.63
62697;BME280;48761;42.680;23.312;2023-05-25T12:02:37;94914.72;;;20.80;64.20
62697;BME280;48761;42.680;23.312;2023-05-25T12:05:04;94908.63;;;21.03;64.08
62697;BME280;48761;42.680;23.312;2023-05-25T12:07:30;94902.88;;;21.06;64.68
62697;BME280;48761;42.680;23.312;2023-05-25T12:10:05;94913.69;;;20.89;66.85
62697;BME280;48761;42.680;23.312;2023-05-25T12:12:48;94906.25;;;20.91;66.36
62697;BME280;48761;42.680;23.312;2023-05-25T12:15:23;94902.63;;;21.41;64.58
62697;BME280;48761;42.680;23.312;2023-05-25T12:17:50;94886.41;;;21.73;63.40
62697;BME280;48761;42.680;23.312;2023-05-25T12:20:17;94904.53;;;22.04;62.74
62697;BME280;48761;42.680;23.312;2023-05-25T12:22:44;94889.81;;;22.31;61.52
62697;BME280;48761;42.680;23.312;2023-05-25T12:25:11;94893.63;;;21.89;60.42
62697;BME280;48761;42.680;23.312;2023-05-25T12:27:38;94886.84;;;21.85;58.09
62697;BME280;48761;42.680;23.312;2023-05-25T12:30:05;94885.97;;;22.01;59.03
62697;BME280;48761;42.680;23.312;2023-05-25T12:32:32;94859.47;;;21.56;57.52
62697;BME280;48761;42.680;23.312;2023-05-25T12:35:05;94867.78;;;21.87;58.50
62697;BME280;48761;42.680;23.312;2023-05-25T12:37:31;94869.22;;;21.98;57.55
62697;BME280;48761;42.680;23.312;2023-05-25T12:39:57;94867.25;;;22.15;55.96
62697;BME280;48761;42.680;23.312;2023-05-25T12:42:24;94856.91;;;22.42;53.29
62697;BME280;48761;42.680;23.312;2023-05-25T12:44:53;94858.03;;;22.71;52.74
62697;BME280;48761;42.680;23.312;2023-05-25T12:47:23;94850.31;;;22.99;52.80
62697;BME280;48761;42.680;23.312;2023-05-25T12:49:51;94846.72;;;22.83;52.74
62697;BME280;48761;42.680;23.312;2023-05-25T12:52:37;94846.69;;;22.05;55.78
62697;BME280;48761;42.680;23.312;2023-05-25T12:55:29;94836.56;;;22.70;55.37